Terminal Aerodrome Forecast
Issued by NWS

Home | Current Version | Previous Version | Text Only | Print | Product List | Glossary On
Versions: 1 2 3 4 5 6 7 8 9 10 11 12 13 14 15 16 17 18 19 20
000
FTUS43 KDTX 302320
TAFDET
TAF
KDET 302320Z 3100/3124 07014G21KT 3SM SHRA BR OVC008
      TEMPO 3100/3101 2SM TSRA BR SCT008 OVC015CB
     FM310400 06009KT 2SM -DZ BR OVC005
     FM310800 05010KT 1/2SM RA FG OVC003
     FM311000 03004KT 1 1/2SM RA BR OVC004
     FM311500 36010KT 3SM -SHRA BR OVC010=

USA.gov is the U.S. government's official web portal to all federal, state and local government web resources and services.